createdAt,value
2024-03-01T00:04:24.467Z,16.40
2024-03-01T00:09:32.731Z,14.60
2024-03-01T00:14:38.324Z,15.37
2024-03-01T00:19:45.228Z,14.93
2024-03-01T00:24:54.571Z,16.88
2024-03-01T00:30:00.130Z,15.37
2024-03-01T00:35:06.585Z,19.20
2024-03-01T00:40:15.112Z,15.40
2024-03-01T00:45:20.826Z,16.65
2024-03-01T00:50:26.639Z,18.02
2024-03-01T00:55:36.839Z,17.23
2024-03-01T01:00:42.278Z,17.70
2024-03-01T01:05:47.948Z,18.13
2024-03-01T01:10:56.155Z,17.77
2024-03-01T01:16:02.253Z,15.75
2024-03-01T01:21:09.007Z,16.93
2024-03-01T01:26:17.450Z,16.88
2024-03-01T01:31:23.260Z,16.53
2024-03-01T01:36:28.866Z,17.90
2024-03-01T01:41:37.377Z,17.13
2024-03-01T01:46:43.413Z,15.33
2024-03-01T01:51:50.782Z,18.73
2024-03-01T01:56:59.277Z,16.70
2024-03-01T02:02:05.634Z,17.50
2024-03-01T02:07:11.731Z,15.98
2024-03-01T02:12:23.491Z,18.20
2024-03-01T02:17:29.309Z,20.25
2024-03-01T02:22:39.018Z,15.30
2024-03-01T02:27:47.775Z,15.60
2024-03-01T02:32:53.475Z,16.02
2024-03-01T02:37:59.017Z,16.97
2024-03-01T02:43:08.280Z,19.65
2024-03-01T02:48:13.891Z,17.63
2024-03-01T02:53:19.691Z,17.88
2024-03-01T02:58:27.752Z,16.63
2024-03-01T03:03:33.503Z,19.00
2024-03-01T03:08:39.774Z,19.55
2024-03-01T03:13:47.934Z,16.03
2024-03-01T03:18:54.142Z,17.30
2024-03-01T03:24:00.839Z,18.83
2024-03-01T03:29:08.944Z,19.73
2024-03-01T03:34:14.930Z,17.95
2024-03-01T03:39:20.629Z,18.00
2024-03-01T03:44:29.589Z,21.27
2024-03-01T03:49:35.143Z,17.25
2024-03-01T03:54:42.242Z,20.10
2024-03-01T03:59:50.470Z,17.58
2024-03-01T04:04:56.111Z,13.93
2024-03-01T04:10:02.072Z,16.70
2024-03-01T04:15:11.365Z,14.73
2024-03-01T04:20:18.264Z,13.20
2024-03-01T04:25:25.536Z,14.35
2024-03-01T04:30:33.925Z,13.47
2024-03-01T04:35:39.402Z,12.98
2024-03-01T04:40:44.919Z,14.05
2024-03-01T04:45:54.550Z,13.20
2024-03-01T04:51:00.069Z,10.82
2024-03-01T04:56:05.907Z,13.33
2024-03-01T05:01:16.968Z,14.02
2024-03-01T05:06:22.719Z,12.90
2024-03-01T05:11:28.257Z,12.30
2024-03-01T05:16:36.718Z,15.25
2024-03-01T05:21:42.199Z,14.07
2024-03-01T05:26:47.756Z,12.50
2024-03-01T05:31:57.083Z,13.93
2024-03-01T05:37:04.507Z,13.67
2024-03-01T05:42:10.095Z,14.13
2024-03-01T05:47:18.168Z,14.03
2024-03-01T05:52:23.738Z,14.20
2024-03-01T05:57:29.448Z,13.25
2024-03-01T06:02:37.609Z,14.20
2024-03-01T06:07:44.111Z,14.25
2024-03-01T06:12:50.020Z,11.53
2024-03-01T06:17:58.596Z,17.48
2024-03-01T06:23:04.967Z,11.90
2024-03-01T06:28:10.746Z,13.13
2024-03-01T06:33:19.064Z,9.80
2024-03-01T06:38:24.868Z,7.90
2024-03-01T06:43:30.919Z,7.45
2024-03-01T06:48:39.031Z,5.45
2024-03-01T06:53:45.883Z,3.60
2024-03-01T06:58:51.400Z,5.03
2024-03-01T07:03:59.760Z,3.10
2024-03-01T07:09:06.259Z,3.83
2024-03-01T07:14:12.267Z,5.13
2024-03-01T07:19:21.360Z,5.00
2024-03-01T07:24:27.062Z,5.55
2024-03-01T07:29:35.436Z,4.27
2024-03-01T07:34:43.746Z,4.70
2024-03-01T07:39:49.685Z,4.28
2024-03-01T07:44:57.193Z,4.37
2024-03-01T07:50:05.278Z,4.05
2024-03-01T07:55:13.059Z,3.70
2024-03-01T08:00:19.176Z,3.70
2024-03-01T08:05:29.472Z,3.47
2024-03-01T08:10:37.241Z,3.80
2024-03-01T08:15:43.227Z,4.25
2024-03-01T08:20:59.846Z,3.70
2024-03-01T08:26:06.913Z,3.88
2024-03-01T08:31:20.916Z,3.92
2024-03-01T08:36:29.067Z,2.13
2024-03-01T08:41:42.095Z,2.67
2024-03-01T08:46:49.229Z,3.07
2024-03-01T08:52:05.401Z,3.60
2024-03-01T08:57:26.323Z,3.63
2024-03-01T09:02:49.828Z,5.90
2024-03-01T09:07:58.883Z,2.50
2024-03-01T09:13:05.381Z,5.90
2024-03-01T09:18:38.015Z,4.35
2024-03-01T09:23:46.221Z,2.03
2024-03-01T09:28:51.791Z,3.90
2024-03-01T09:33:57.599Z,4.28
2024-03-01T09:39:09.712Z,3.97
2024-03-01T09:44:24.874Z,3.20
2024-03-01T09:49:41.345Z,3.92
2024-03-01T09:55:05.687Z,3.37
2024-03-01T10:00:15.665Z,6.28
2024-03-01T10:05:41.734Z,4.30
2024-03-01T10:10:59.119Z,3.38
2024-03-01T10:16:19.048Z,2.20
2024-03-01T10:21:45.649Z,2.97
2024-03-01T10:27:03.779Z,3.15
2024-03-01T10:32:27.126Z,2.22
2024-03-01T10:37:39.665Z,2.10
2024-03-01T10:42:49.902Z,2.40
2024-03-01T10:47:57.073Z,1.40
2024-03-01T10:53:08.143Z,2.08
2024-03-01T10:58:21.977Z,1.20
2024-03-01T11:03:33.995Z,1.00
2024-03-01T11:08:51.262Z,1.55
2024-03-01T11:14:03.667Z,0.88
2024-03-01T11:19:14.064Z,1.47
2024-03-01T11:24:25.030Z,0.65
2024-03-01T11:29:38.669Z,1.53
2024-03-01T11:34:53.657Z,1.15
2024-03-01T11:40:08.362Z,1.20
2024-03-01T11:45:34.007Z,1.70
2024-03-01T11:50:51.426Z,0.95
2024-03-01T11:56:14.249Z,0.73
2024-03-01T12:01:37.230Z,1.33
2024-03-01T12:07:05.945Z,0.65
2024-03-01T12:12:24.148Z,0.87
2024-03-01T12:17:35.834Z,2.70
2024-03-01T12:22:52.635Z,1.33
2024-03-01T12:28:15.271Z,0.63
2024-03-01T12:33:44.717Z,1.05
2024-03-01T12:38:53.871Z,2.70
2024-03-01T12:44:19.070Z,1.75
2024-03-01T12:49:38.955Z,1.00
2024-03-01T12:54:48.665Z,1.20
2024-03-01T13:00:02.033Z,1.33
2024-03-01T13:05:26.369Z,1.37
2024-03-01T13:10:34.043Z,1.27
2024-03-01T13:15:48.390Z,3.08
2024-03-01T13:21:06.739Z,1.33
2024-03-01T13:26:27.922Z,2.25
2024-03-01T13:31:41.093Z,2.37
2024-03-01T13:36:58.202Z,2.77
2024-03-01T13:42:23.175Z,1.40
2024-03-01T13:47:33.810Z,2.90
2024-03-01T13:52:44.391Z,4.07
2024-03-01T13:57:51.077Z,3.95
2024-03-01T14:02:57.179Z,1.73
2024-03-01T14:08:06.229Z,3.63
2024-03-01T14:13:15.385Z,1.57
2024-03-01T14:18:23.406Z,1.13
2024-03-01T14:23:33.222Z,1.52
2024-03-01T14:28:41.752Z,1.70
2024-03-01T14:34:00.009Z,1.20
2024-03-01T14:39:10.664Z,2.47
2024-03-01T14:44:28.778Z,2.72
2024-03-01T14:49:39.933Z,3.80
2024-03-01T14:54:48.324Z,1.57
2024-03-01T14:59:54.071Z,3.42
2024-03-01T15:05:00.068Z,1.83
2024-03-01T15:10:10.103Z,2.80
2024-03-01T15:15:17.101Z,2.17
2024-03-01T15:20:23.890Z,2.93
2024-03-01T15:25:33.050Z,2.95
2024-03-01T15:30:38.892Z,1.77
2024-03-01T15:35:45.787Z,1.47
2024-03-01T15:40:54.294Z,7.15
2024-03-01T15:45:59.907Z,2.77
2024-03-01T15:51:06.966Z,1.67
2024-03-01T15:56:15.547Z,1.77
2024-03-01T16:01:21.499Z,1.97
2024-03-01T16:06:27.110Z,3.53
2024-03-01T16:11:35.341Z,1.17
2024-03-01T16:16:41.497Z,1.02
2024-03-01T16:21:47.418Z,2.13
2024-03-01T16:26:55.533Z,1.50
2024-03-01T16:32:02.166Z,2.00
2024-03-01T16:37:07.933Z,1.33
2024-03-01T16:42:37.834Z,2.25
2024-03-01T16:47:43.704Z,3.97
2024-03-01T16:52:50.106Z,1.53
2024-03-01T16:57:58.622Z,2.22
2024-03-01T17:03:07.125Z,1.57
2024-03-01T17:08:21.124Z,2.88
2024-03-01T17:13:30.590Z,3.00
2024-03-01T17:18:36.544Z,3.57
2024-03-01T17:23:42.436Z,1.90
2024-03-01T17:28:50.646Z,2.42
2024-03-01T17:33:56.700Z,1.97
2024-03-01T17:39:05.164Z,3.00
2024-03-01T17:44:13.493Z,5.00
2024-03-01T17:49:29.606Z,3.67
2024-03-01T17:54:36.679Z,2.28
2024-03-01T17:59:45.262Z,1.20
2024-03-01T18:04:51.778Z,2.17
2024-03-01T18:09:57.417Z,2.60
2024-03-01T18:15:09.129Z,2.22
2024-03-01T18:20:14.857Z,2.10
2024-03-01T18:25:20.688Z,3.00
2024-03-01T18:30:29.454Z,5.35
2024-03-01T18:35:34.917Z,3.80
2024-03-01T18:40:43.799Z,3.05
2024-03-01T18:45:54.182Z,1.30
2024-03-01T18:50:59.880Z,6.80
2024-03-01T18:56:06.816Z,3.40
2024-03-01T19:01:16.497Z,2.67
2024-03-01T19:06:23.735Z,2.60
2024-03-01T19:11:31.361Z,2.08
2024-03-01T19:16:39.586Z,2.10
2024-03-01T19:21:45.189Z,3.03
2024-03-01T19:26:53.258Z,2.20
2024-03-01T19:32:02.950Z,3.60
2024-03-01T19:37:11.502Z,3.60
2024-03-01T19:42:18.111Z,1.67
2024-03-01T19:47:26.608Z,2.67
2024-03-01T19:52:32.290Z,2.40
2024-03-01T19:57:37.922Z,2.55
2024-03-01T20:02:45.991Z,3.13
2024-03-01T20:07:52.211Z,3.37
2024-03-01T20:12:58.327Z,3.15
2024-03-01T20:18:06.858Z,3.53
2024-03-01T20:23:14.481Z,3.83
2024-03-01T20:28:20.600Z,1.88
2024-03-01T20:33:29.045Z,3.70
2024-03-01T20:38:37.160Z,2.08
2024-03-01T20:43:43.504Z,4.27
2024-03-01T20:48:53.982Z,2.67
2024-03-01T20:54:02.834Z,3.20
2024-03-01T20:59:08.965Z,2.97
2024-03-01T21:04:17.325Z,2.10
2024-03-01T21:09:23.994Z,1.80
2024-03-01T21:14:33.796Z,2.88
2024-03-01T21:19:42.586Z,3.63
2024-03-01T21:24:49.887Z,4.33
2024-03-01T21:29:55.380Z,3.05
2024-03-01T21:35:03.966Z,1.43
2024-03-01T21:40:25.499Z,3.50
2024-03-01T21:45:34.917Z,1.80
2024-03-01T21:50:43.308Z,2.10
2024-03-01T21:55:48.817Z,2.20
2024-03-01T22:01:04.028Z,1.33
2024-03-01T22:06:12.379Z,3.75
2024-03-01T22:11:18.049Z,1.83
2024-03-01T22:16:23.619Z,2.10
2024-03-01T22:21:32.089Z,1.67
2024-03-01T22:26:38.265Z,1.83
2024-03-01T22:31:44.653Z,3.13
2024-03-01T22:36:53.225Z,2.42
2024-03-01T22:42:00.710Z,1.27
2024-03-01T22:47:07.561Z,2.08
2024-03-01T22:52:24.371Z,1.83
2024-03-01T22:57:39.399Z,1.33
2024-03-01T23:02:45.119Z,2.20
2024-03-01T23:07:53.479Z,2.17
2024-03-01T23:12:59.234Z,2.67
2024-03-01T23:18:05.736Z,3.37
2024-03-01T23:23:14.849Z,1.48
2024-03-01T23:28:20.557Z,2.15
2024-03-01T23:33:26.241Z,3.00
2024-03-01T23:38:34.472Z,2.63
2024-03-01T23:43:40.373Z,1.60
2024-03-01T23:48:46.053Z,2.42
2024-03-01T23:53:54.423Z,1.58
2024-03-01T23:59:00.348Z,2.23
